createdAt,value
2017-06-13T00:01:27.502Z,18.80
2017-06-13T00:03:55.802Z,18.80
2017-06-13T00:06:24.078Z,18.80
2017-06-13T00:08:52.361Z,18.80
2017-06-13T00:11:20.643Z,18.90
2017-06-13T00:13:48.923Z,18.90
2017-06-13T00:16:17.191Z,18.80
2017-06-13T00:18:45.475Z,18.80
2017-06-13T00:21:13.743Z,18.80
2017-06-13T00:23:42.024Z,18.70
2017-06-13T00:26:10.291Z,18.70
2017-06-13T00:28:38.587Z,18.60
2017-06-13T00:31:06.863Z,18.60
2017-06-13T00:33:35.139Z,18.40
2017-06-13T00:36:03.430Z,18.40
2017-06-13T00:38:31.707Z,18.30
2017-06-13T00:40:59.994Z,18.40
2017-06-13T00:43:28.269Z,18.40
2017-06-13T00:45:56.548Z,18.20
2017-06-13T00:48:24.812Z,18.00
2017-06-13T00:50:53.092Z,17.90
2017-06-13T00:53:21.369Z,17.80
2017-06-13T00:55:49.655Z,17.70
2017-06-13T00:58:17.932Z,17.60
2017-06-13T01:03:46.887Z,17.50
2017-06-13T01:06:15.179Z,17.40
2017-06-13T01:08:43.451Z,17.40
2017-06-13T01:11:11.739Z,17.30
2017-06-13T01:13:40.011Z,17.30
2017-06-13T01:16:08.316Z,17.30
2017-06-13T01:18:37.350Z,17.40
2017-06-13T01:21:05.938Z,17.40
2017-06-13T01:23:34.215Z,17.50
2017-06-13T01:26:02.476Z,17.40
2017-06-13T01:28:30.770Z,17.40
2017-06-13T01:30:59.042Z,17.50
2017-06-13T01:33:27.323Z,17.50
2017-06-13T01:35:55.597Z,17.50
2017-06-13T01:38:24.989Z,17.50
2017-06-13T01:40:53.250Z,17.50
2017-06-13T01:43:21.546Z,17.50
2017-06-13T01:45:49.811Z,17.40
2017-06-13T01:48:18.096Z,17.40
2017-06-13T01:50:46.377Z,17.40
2017-06-13T01:53:14.659Z,17.40
2017-06-13T01:55:42.927Z,17.40
2017-06-13T01:58:11.206Z,17.20
2017-06-13T02:00:39.471Z,17.20
2017-06-13T02:03:07.755Z,17.20
2017-06-13T02:05:36.027Z,17.20
2017-06-13T02:08:04.329Z,17.10
2017-06-13T02:10:32.601Z,17.00
2017-06-13T02:13:00.865Z,17.00
2017-06-13T02:15:29.155Z,16.90
2017-06-13T02:17:57.424Z,16.80
2017-06-13T02:20:25.718Z,16.70
2017-06-13T02:22:53.979Z,16.70
2017-06-13T02:25:22.275Z,16.50
2017-06-13T02:27:50.547Z,16.50
2017-06-13T02:30:18.849Z,16.40
2017-06-13T02:32:47.127Z,16.30
2017-06-13T02:35:15.419Z,16.30
2017-06-13T02:37:43.682Z,16.20
2017-06-13T02:40:11.968Z,16.20
2017-06-13T02:42:40.231Z,16.10
2017-06-13T02:45:08.511Z,16.00
2017-06-13T02:47:36.778Z,15.90
2017-06-13T02:50:05.076Z,16.00
2017-06-13T02:52:33.339Z,16.00
2017-06-13T02:55:01.602Z,15.90
2017-06-13T02:57:30.792Z,15.90
2017-06-13T02:59:59.055Z,15.90
2017-06-13T03:02:31.805Z,15.90
2017-06-13T03:05:00.830Z,15.80
2017-06-13T03:07:29.157Z,15.80
2017-06-13T03:09:57.414Z,15.70
2017-06-13T03:12:25.699Z,15.70
2017-06-13T03:14:53.966Z,15.60
2017-06-13T03:17:22.248Z,15.60
2017-06-13T03:19:50.514Z,15.50
2017-06-13T03:22:18.799Z,15.60
2017-06-13T03:24:48.985Z,15.50
2017-06-13T03:27:18.476Z,15.50
2017-06-13T03:29:48.643Z,15.40
2017-06-13T03:32:21.139Z,15.40
2017-06-13T03:34:54.289Z,15.40
2017-06-13T03:37:26.216Z,15.40
2017-06-13T03:39:57.387Z,15.30
2017-06-13T03:42:30.912Z,15.40
2017-06-13T03:44:59.393Z,15.40
2017-06-13T03:47:27.658Z,15.30
2017-06-13T03:49:55.952Z,15.30
2017-06-13T03:52:24.220Z,15.30
2017-06-13T03:54:52.523Z,15.30
2017-06-13T03:57:20.794Z,15.40
2017-06-13T03:59:49.077Z,15.40
2017-06-13T04:02:17.353Z,15.30
2017-06-13T04:04:45.674Z,15.40
2017-06-13T04:07:13.942Z,15.40
2017-06-13T04:09:42.222Z,15.40
2017-06-13T04:12:10.487Z,15.50
2017-06-13T04:14:39.532Z,15.50
2017-06-13T04:17:07.818Z,15.50
2017-06-13T04:19:36.111Z,15.50
2017-06-13T04:22:04.379Z,15.50
2017-06-13T04:24:32.662Z,15.50
2017-06-13T04:27:00.926Z,15.50
2017-06-13T04:29:29.206Z,15.60
2017-06-13T04:31:57.478Z,15.60
2017-06-13T04:34:25.754Z,15.70
2017-06-13T04:36:54.058Z,15.70
2017-06-13T04:39:22.331Z,15.70
2017-06-13T04:41:50.654Z,15.70
2017-06-13T04:44:18.920Z,15.70
2017-06-13T04:46:47.981Z,15.90
2017-06-13T04:49:16.243Z,15.90
2017-06-13T04:51:44.526Z,16.00
2017-06-13T04:54:12.787Z,16.40
2017-06-13T04:56:41.071Z,16.80
2017-06-13T04:59:09.339Z,17.30
2017-06-13T05:01:37.619Z,17.80
2017-06-13T05:04:05.889Z,18.30
2017-06-13T05:06:34.166Z,18.80
2017-06-13T05:09:02.442Z,19.20
2017-06-13T05:11:30.743Z,19.60
2017-06-13T05:13:59.005Z,20.10
2017-06-13T05:16:27.270Z,20.40
2017-06-13T05:18:55.555Z,20.60
2017-06-13T05:21:23.822Z,20.80
2017-06-13T05:23:52.102Z,21.10
2017-06-13T05:26:20.370Z,21.40
2017-06-13T05:28:48.650Z,21.60
2017-06-13T05:31:16.907Z,21.70
2017-06-13T05:33:45.194Z,21.90
2017-06-13T05:36:13.461Z,22.00
2017-06-13T05:38:41.738Z,22.20
2017-06-13T05:41:10.006Z,22.30
2017-06-13T05:43:38.294Z,22.40
2017-06-13T05:46:06.569Z,22.70
2017-06-13T05:48:34.875Z,22.90
2017-06-13T05:51:03.186Z,23.00
2017-06-13T05:53:31.438Z,23.00
2017-06-13T05:55:59.725Z,22.90
2017-06-13T05:58:27.988Z,22.90
2017-06-13T06:00:56.277Z,22.90
2017-06-13T06:03:24.547Z,23.00
2017-06-13T06:05:52.834Z,23.20
2017-06-13T06:08:21.107Z,23.00
2017-06-13T06:10:49.400Z,23.10
2017-06-13T06:13:17.676Z,23.10
2017-06-13T06:15:45.992Z,23.10
2017-06-13T06:18:14.262Z,23.10
2017-06-13T06:20:43.314Z,23.20
2017-06-13T06:23:11.583Z,23.20
2017-06-13T06:25:39.886Z,23.00
2017-06-13T06:28:08.150Z,22.90
2017-06-13T06:30:36.418Z,22.80
2017-06-13T06:33:04.702Z,22.80
2017-06-13T06:35:32.961Z,23.00
2017-06-13T06:38:01.263Z,23.10
2017-06-13T06:40:29.538Z,22.90
2017-06-13T06:42:57.818Z,22.50
2017-06-13T06:45:26.090Z,22.60
2017-06-13T06:47:54.370Z,22.70
2017-06-13T06:50:22.639Z,23.10
2017-06-13T06:52:50.919Z,23.20
2017-06-13T06:55:19.245Z,23.40
2017-06-13T06:57:48.338Z,22.90
2017-06-13T07:00:16.608Z,22.90
2017-06-13T07:02:45.672Z,23.10
2017-06-13T07:05:13.937Z,23.10
2017-06-13T07:07:42.207Z,23.40
2017-06-13T07:10:10.503Z,23.30
2017-06-13T07:12:38.781Z,23.00
2017-06-13T07:15:07.072Z,22.90
2017-06-13T07:17:36.126Z,23.30
2017-06-13T07:20:04.411Z,23.20
2017-06-13T07:22:32.691Z,23.40
2017-06-13T07:25:00.978Z,23.30
2017-06-13T07:27:29.252Z,23.30
2017-06-13T07:29:57.532Z,23.40
2017-06-13T07:32:25.831Z,23.60
2017-06-13T07:34:54.134Z,23.70
2017-06-13T07:37:22.394Z,23.80
2017-06-13T07:39:51.447Z,23.80
2017-06-13T07:42:19.719Z,23.70
2017-06-13T07:44:47.996Z,23.60
2017-06-13T07:47:16.287Z,23.70
2017-06-13T07:49:44.601Z,23.50
2017-06-13T07:52:13.641Z,23.70
2017-06-13T07:54:41.929Z,23.70
2017-06-13T07:57:10.224Z,23.70
2017-06-13T07:59:39.338Z,23.50
2017-06-13T08:02:08.572Z,23.70
2017-06-13T08:04:36.839Z,23.70
2017-06-13T08:07:05.126Z,23.80
2017-06-13T08:09:33.394Z,23.90
2017-06-13T08:12:01.723Z,23.90
2017-06-13T08:14:30.068Z,23.60
2017-06-13T08:16:58.350Z,23.30
2017-06-13T08:19:26.626Z,23.30
2017-06-13T08:21:54.911Z,23.30
2017-06-13T08:24:23.186Z,23.40
2017-06-13T08:26:51.487Z,23.50
2017-06-13T08:29:19.752Z,23.20
2017-06-13T08:31:48.042Z,23.00
2017-06-13T08:34:16.303Z,23.00
2017-06-13T08:36:44.635Z,23.10
2017-06-13T08:39:12.901Z,23.10
2017-06-13T08:41:41.927Z,22.80
2017-06-13T08:44:10.214Z,22.70
2017-06-13T08:46:38.482Z,22.80
2017-06-13T08:49:06.808Z,22.80
2017-06-13T08:51:35.082Z,22.60
2017-06-13T08:54:03.404Z,22.40
2017-06-13T08:56:31.681Z,22.50
2017-06-13T08:58:59.956Z,22.50
2017-06-13T09:01:28.247Z,22.90
2017-06-13T09:03:56.571Z,23.10
2017-06-13T09:06:24.859Z,22.60
2017-06-13T09:08:53.943Z,22.30
2017-06-13T09:11:22.211Z,22.30
2017-06-13T09:13:50.498Z,22.30
2017-06-13T09:16:18.767Z,22.40
2017-06-13T09:18:47.072Z,22.50
2017-06-13T09:21:16.107Z,22.60
2017-06-13T09:23:44.371Z,22.60
2017-06-13T09:26:12.670Z,22.70
2017-06-13T09:28:40.945Z,23.00
2017-06-13T09:31:09.264Z,23.30
2017-06-13T09:33:37.532Z,23.50
2017-06-13T09:36:06.595Z,23.70
2017-06-13T09:38:34.869Z,23.70
2017-06-13T09:41:03.170Z,23.70
2017-06-13T09:43:31.470Z,23.70
2017-06-13T09:46:00.322Z,23.60
2017-06-13T09:48:28.591Z,23.30
2017-06-13T09:50:56.883Z,23.30
2017-06-13T09:53:25.157Z,23.50
2017-06-13T09:55:53.451Z,23.70
2017-06-13T09:58:22.770Z,23.70
2017-06-13T10:00:51.058Z,23.60
2017-06-13T10:03:19.347Z,23.60
2017-06-13T10:05:47.716Z,23.70
2017-06-13T10:08:16.013Z,23.90
2017-06-13T10:10:44.289Z,24.10
2017-06-13T10:13:12.574Z,23.80
2017-06-13T10:15:40.853Z,23.60
2017-06-13T10:18:09.144Z,23.50
2017-06-13T10:20:37.422Z,23.40
2017-06-13T10:23:05.769Z,23.50
2017-06-13T10:25:34.047Z,23.70
2017-06-13T10:28:02.329Z,23.70
2017-06-13T10:30:30.628Z,23.80
2017-06-13T10:32:59.269Z,23.80
2017-06-13T10:35:28.497Z,23.70
2017-06-13T10:37:56.771Z,23.80
2017-06-13T10:40:25.067Z,23.90
2017-06-13T10:42:53.591Z,24.10
2017-06-13T10:45:21.896Z,24.10
2017-06-13T10:47:50.185Z,24.10
2017-06-13T10:50:18.470Z,24.10
2017-06-13T10:52:46.748Z,24.20
2017-06-13T10:55:15.075Z,24.20
2017-06-13T10:57:44.120Z,23.80
2017-06-13T11:00:12.401Z,23.80
2017-06-13T11:02:40.700Z,23.70
2017-06-13T11:05:08.982Z,23.80
2017-06-13T11:07:37.333Z,23.90
2017-06-13T11:10:05.618Z,24.10
2017-06-13T11:12:33.903Z,24.10
2017-06-13T11:15:02.179Z,24.20
2017-06-13T11:17:30.475Z,24.20
2017-06-13T11:19:58.780Z,24.30
2017-06-13T11:22:27.230Z,24.40
2017-06-13T11:24:55.637Z,24.50
2017-06-13T11:27:23.932Z,24.40
2017-06-13T11:29:52.227Z,24.30
2017-06-13T11:32:20.527Z,24.20
2017-06-13T11:34:48.807Z,24.20
2017-06-13T11:37:17.132Z,24.30
2017-06-13T11:39:45.419Z,24.50
2017-06-13T11:42:13.706Z,24.50
2017-06-13T11:44:42.025Z,24.60
2017-06-13T11:47:10.311Z,24.80
2017-06-13T11:49:38.664Z,24.90
2017-06-13T11:52:06.944Z,25.00
2017-06-13T11:54:35.237Z,24.90
2017-06-13T11:57:03.535Z,25.00
2017-06-13T11:59:31.843Z,25.00
2017-06-13T12:02:00.131Z,24.90
2017-06-13T12:04:28.468Z,25.00
2017-06-13T12:06:56.746Z,25.10
2017-06-13T12:09:25.052Z,25.20
2017-06-13T12:11:53.375Z,25.30
2017-06-13T12:14:21.679Z,25.20
2017-06-13T12:16:49.968Z,25.00
2017-06-13T12:19:18.300Z,25.20
2017-06-13T12:21:46.576Z,25.30
2017-06-13T12:24:14.860Z,25.50
2017-06-13T12:26:43.154Z,25.50
2017-06-13T12:29:12.277Z,25.40
2017-06-13T12:31:40.577Z,25.30
2017-06-13T12:34:08.850Z,25.40
2017-06-13T12:36:37.155Z,25.50
2017-06-13T12:39:05.455Z,25.50
2017-06-13T12:41:33.753Z,25.60
2017-06-13T12:44:02.038Z,25.70
2017-06-13T12:46:30.337Z,25.50
2017-06-13T12:48:58.660Z,25.30
2017-06-13T12:51:26.959Z,25.30
2017-06-13T12:53:55.235Z,25.20
2017-06-13T12:56:23.580Z,25.30
2017-06-13T12:58:51.860Z,25.40
2017-06-13T13:01:20.195Z,25.40
2017-06-13T13:03:48.494Z,25.50
2017-06-13T13:06:16.839Z,25.40
2017-06-13T13:08:45.192Z,25.50
2017-06-13T13:11:13.490Z,25.50
2017-06-13T13:13:41.800Z,25.60
2017-06-13T13:16:10.082Z,25.50
2017-06-13T13:18:38.424Z,25.50
2017-06-13T13:21:07.156Z,25.50
2017-06-13T13:23:35.453Z,25.40
2017-06-13T13:26:03.747Z,25.50
2017-06-13T13:28:32.058Z,25.60
2017-06-13T13:31:00.356Z,25.60
2017-06-13T13:33:28.692Z,25.50
2017-06-13T13:35:57.460Z,25.40
2017-06-13T13:38:25.744Z,25.40
2017-06-13T13:40:54.815Z,25.40
2017-06-13T13:43:23.159Z,25.40
2017-06-13T13:45:51.482Z,25.50
2017-06-13T13:48:19.756Z,25.50
2017-06-13T13:50:48.064Z,25.70
2017-06-13T13:53:17.117Z,25.50
2017-06-13T13:55:45.418Z,25.50
2017-06-13T13:58:13.708Z,25.60
2017-06-13T14:00:42.775Z,25.50
2017-06-13T14:03:11.052Z,25.50
2017-06-13T14:05:39.350Z,25.50
2017-06-13T14:08:07.667Z,25.40
2017-06-13T14:10:36.144Z,25.30
2017-06-13T14:13:04.440Z,25.20
2017-06-13T14:15:32.721Z,25.10
2017-06-13T14:18:01.066Z,25.10
2017-06-13T14:20:29.347Z,25.20
2017-06-13T14:22:57.643Z,25.10
2017-06-13T14:25:25.916Z,25.10
2017-06-13T14:27:56.309Z,25.10
2017-06-13T14:30:25.361Z,24.90
2017-06-13T14:32:53.765Z,24.90
2017-06-13T14:35:22.044Z,24.80
2017-06-13T14:37:50.338Z,24.80
2017-06-13T14:40:18.850Z,24.90
2017-06-13T14:42:47.204Z,24.80
2017-06-13T14:45:15.478Z,24.80
2017-06-13T14:47:43.812Z,24.90
2017-06-13T14:50:12.235Z,24.90
2017-06-13T14:52:41.310Z,24.90
2017-06-13T14:55:09.624Z,25.00
2017-06-13T14:57:37.903Z,25.00
2017-06-13T15:00:06.988Z,25.00
2017-06-13T15:02:35.265Z,25.00
2017-06-13T15:05:03.567Z,24.90
2017-06-13T15:07:31.846Z,24.90
2017-06-13T15:10:00.143Z,25.00
2017-06-13T15:12:29.180Z,24.90
2017-06-13T15:14:57.467Z,24.80
2017-06-13T15:17:25.744Z,24.90
2017-06-13T15:19:54.034Z,25.00
2017-06-13T15:22:22.321Z,25.00
2017-06-13T15:24:51.414Z,24.90
2017-06-13T15:27:19.691Z,24.80
2017-06-13T15:29:47.983Z,24.70
2017-06-13T15:32:16.292Z,24.60
2017-06-13T15:34:44.591Z,24.40
2017-06-13T15:37:12.876Z,24.40
2017-06-13T15:39:41.147Z,24.30
2017-06-13T15:42:09.452Z,24.30
2017-06-13T15:44:37.712Z,24.40
2017-06-13T15:47:06.002Z,24.50
2017-06-13T15:49:34.275Z,24.40
2017-06-13T15:52:02.571Z,24.40
2017-06-13T15:54:30.851Z,24.40
2017-06-13T15:56:59.235Z,24.50
2017-06-13T15:59:28.274Z,24.40
2017-06-13T16:01:56.564Z,24.30
2017-06-13T16:04:24.844Z,24.50
2017-06-13T16:06:53.136Z,24.50
2017-06-13T16:09:21.414Z,24.30
2017-06-13T16:11:49.707Z,24.10
2017-06-13T16:14:17.974Z,24.10
2017-06-13T16:16:46.281Z,24.10
2017-06-13T16:19:14.559Z,23.90
2017-06-13T16:21:42.830Z,23.90
2017-06-13T16:24:11.890Z,23.80
2017-06-13T16:26:40.159Z,23.80
2017-06-13T16:29:08.446Z,23.90
2017-06-13T16:31:36.725Z,23.80
2017-06-13T16:34:05.010Z,23.80
2017-06-13T16:36:33.287Z,23.90
2017-06-13T16:39:01.590Z,23.90
2017-06-13T16:41:29.903Z,23.90
2017-06-13T16:43:58.203Z,23.90
2017-06-13T16:46:26.479Z,23.90
2017-06-13T16:48:54.767Z,24.00
2017-06-13T16:51:23.063Z,24.00
2017-06-13T16:53:51.352Z,24.00
2017-06-13T16:56:20.396Z,24.00
2017-06-13T16:58:48.688Z,24.10
2017-06-13T17:01:16.960Z,24.10
2017-06-13T17:03:45.294Z,24.10
2017-06-13T17:06:13.574Z,24.10
2017-06-13T17:08:41.848Z,24.00
2017-06-13T17:11:10.929Z,23.80
2017-06-13T17:13:39.983Z,23.90
2017-06-13T17:16:08.295Z,23.80
2017-06-13T17:18:36.566Z,23.90
2017-06-13T17:21:04.855Z,23.90
2017-06-13T17:23:34.008Z,23.80
2017-06-13T17:26:02.344Z,23.70
2017-06-13T17:28:32.200Z,23.70
2017-06-13T17:31:00.561Z,23.70
2017-06-13T17:33:28.849Z,23.70
2017-06-13T17:35:57.166Z,23.70
2017-06-13T17:38:25.427Z,23.80
2017-06-13T17:40:53.727Z,23.80
2017-06-13T17:43:22.008Z,23.80
2017-06-13T17:45:50.431Z,23.80
2017-06-13T17:48:18.708Z,23.70
2017-06-13T17:50:47.076Z,23.60
2017-06-13T17:53:15.350Z,23.60
2017-06-13T17:55:43.640Z,23.60
2017-06-13T17:58:11.946Z,23.70
2017-06-13T18:00:40.215Z,23.70
2017-06-13T18:03:08.531Z,23.70
2017-06-13T18:05:37.575Z,23.60
2017-06-13T18:08:05.860Z,23.60
2017-06-13T18:10:34.133Z,23.60
2017-06-13T18:13:02.435Z,23.50
2017-06-13T18:15:30.736Z,23.60
2017-06-13T18:17:59.795Z,23.50
2017-06-13T18:20:28.074Z,23.60
2017-06-13T18:22:56.379Z,23.50
2017-06-13T18:25:24.647Z,23.50
2017-06-13T18:27:52.951Z,23.40
2017-06-13T18:30:21.999Z,23.30
2017-06-13T18:32:50.277Z,23.20
2017-06-13T18:35:18.582Z,23.20
2017-06-13T18:37:46.849Z,23.20
2017-06-13T18:40:15.151Z,23.20
2017-06-13T18:42:44.196Z,23.20
2017-06-13T18:45:12.495Z,23.20
2017-06-13T18:47:40.787Z,23.20
2017-06-13T18:50:09.092Z,23.00
2017-06-13T18:52:37.401Z,23.00
2017-06-13T18:55:05.690Z,23.10
2017-06-13T18:57:33.975Z,23.10
2017-06-13T19:00:02.280Z,23.00
2017-06-13T19:02:30.596Z,23.10
2017-06-13T19:04:58.878Z,23.00
2017-06-13T19:07:27.987Z,23.00
2017-06-13T19:09:56.275Z,23.00
2017-06-13T19:12:24.568Z,23.00
2017-06-13T19:14:52.868Z,22.90
2017-06-13T19:17:21.141Z,22.80
2017-06-13T19:19:50.185Z,22.80
2017-06-13T19:22:18.466Z,22.70
2017-06-13T19:24:46.739Z,22.70
2017-06-13T19:27:15.035Z,22.70
2017-06-13T19:29:43.307Z,22.70
2017-06-13T19:32:11.630Z,22.60
2017-06-13T19:34:39.918Z,22.70
2017-06-13T19:37:08.223Z,22.60
2017-06-13T19:39:36.523Z,22.50
2017-06-13T19:42:04.864Z,22.50
2017-06-13T19:44:33.143Z,22.50
2017-06-13T19:47:01.448Z,22.50
2017-06-13T19:49:29.776Z,22.40
2017-06-13T19:51:58.850Z,22.30
2017-06-13T19:54:27.120Z,22.30
2017-06-13T19:56:55.400Z,22.20
2017-06-13T19:59:23.695Z,22.10
2017-06-13T20:01:52.742Z,22.00
2017-06-13T20:04:21.031Z,22.00
2017-06-13T20:06:49.376Z,22.00
2017-06-13T20:09:17.669Z,22.00
2017-06-13T20:11:45.967Z,22.00
2017-06-13T20:14:14.274Z,21.80
2017-06-13T20:16:42.563Z,21.80
2017-06-13T20:19:10.847Z,21.70
2017-06-13T20:21:42.954Z,21.60
2017-06-13T20:24:12.243Z,21.60
2017-06-13T20:26:40.526Z,21.60
2017-06-13T20:29:14.624Z,21.60
2017-06-13T20:31:42.901Z,21.50
2017-06-13T20:34:11.204Z,21.50
2017-06-13T20:36:39.472Z,21.40
2017-06-13T20:39:07.860Z,21.40
2017-06-13T20:41:36.127Z,21.30
2017-06-13T20:44:04.429Z,21.30
2017-06-13T20:46:32.698Z,21.30
2017-06-13T20:49:00.978Z,21.30
2017-06-13T20:51:29.283Z,21.20
2017-06-13T20:53:58.326Z,21.00
2017-06-13T20:56:26.616Z,21.00
2017-06-13T20:58:54.887Z,21.00
2017-06-13T21:01:23.183Z,21.00
2017-06-13T21:03:51.447Z,20.90
2017-06-13T21:06:19.739Z,20.90
2017-06-13T21:08:48.011Z,20.90
2017-06-13T21:11:16.303Z,20.90
2017-06-13T21:13:44.579Z,20.90
2017-06-13T21:16:12.875Z,21.00
2017-06-13T21:18:41.150Z,20.90
2017-06-13T21:21:10.204Z,20.60
2017-06-13T21:23:38.471Z,20.60
2017-06-13T21:26:06.789Z,20.50
2017-06-13T21:28:35.064Z,20.30
2017-06-13T21:31:03.343Z,20.30
2017-06-13T21:33:31.629Z,20.10
2017-06-13T21:35:59.899Z,20.00
2017-06-13T21:38:28.191Z,19.90
2017-06-13T21:40:57.238Z,19.70
2017-06-13T21:43:25.538Z,19.70
2017-06-13T21:45:53.808Z,19.60
2017-06-13T21:48:22.100Z,19.50
2017-06-13T21:50:50.378Z,19.50
2017-06-13T21:53:18.671Z,19.50
2017-06-13T21:55:47.708Z,19.40
2017-06-13T21:58:16.013Z,19.40
2017-06-13T22:00:44.287Z,19.30
2017-06-13T22:03:12.566Z,19.30
2017-06-13T22:05:40.834Z,19.30
2017-06-13T22:08:09.100Z,19.20
2017-06-13T22:10:37.384Z,19.10
2017-06-13T22:13:05.674Z,19.20
2017-06-13T22:15:33.976Z,19.10
2017-06-13T22:18:02.248Z,19.10
2017-06-13T22:20:30.540Z,19.10
2017-06-13T22:22:59.582Z,19.10
2017-06-13T22:25:27.867Z,19.10
2017-06-13T22:27:56.140Z,19.20
2017-06-13T22:30:24.435Z,19.30
2017-06-13T22:32:52.712Z,19.30
2017-06-13T22:35:21.020Z,19.40
2017-06-13T22:37:50.063Z,19.60
2017-06-13T22:40:18.328Z,19.60
2017-06-13T22:42:46.625Z,19.60
2017-06-13T22:45:14.895Z,19.70
2017-06-13T22:47:43.186Z,19.70
2017-06-13T22:50:11.459Z,19.70
2017-06-13T22:52:39.752Z,19.70
2017-06-13T22:55:08.028Z,19.70
2017-06-13T22:57:36.316Z,19.60
2017-06-13T23:00:04.600Z,19.60
2017-06-13T23:02:32.894Z,19.60
2017-06-13T23:05:01.934Z,19.40
2017-06-13T23:07:30.227Z,19.30
2017-06-13T23:09:58.527Z,19.30
2017-06-13T23:12:26.808Z,19.10
2017-06-13T23:14:55.123Z,19.00
2017-06-13T23:17:23.393Z,19.00
2017-06-13T23:19:51.694Z,19.00
2017-06-13T23:22:19.963Z,18.90
2017-06-13T23:24:48.249Z,18.90
2017-06-13T23:27:16.531Z,19.00
2017-06-13T23:29:44.824Z,19.00
2017-06-13T23:32:13.100Z,19.00
2017-06-13T23:34:41.378Z,19.00
2017-06-13T23:37:09.677Z,18.90
2017-06-13T23:39:37.955Z,19.00
2017-06-13T23:42:06.239Z,19.00
2017-06-13T23:44:34.514Z,19.00
2017-06-13T23:47:03.568Z,19.10
2017-06-13T23:49:31.846Z,19.00
2017-06-13T23:52:00.123Z,19.00
2017-06-13T23:54:28.403Z,19.10
2017-06-13T23:56:56.686Z,19.00
2017-06-13T23:59:25.024Z,18.90
